Stad Amsterdam — PECA — position and weather

sailwx.info

Track history (hours):
 
Tides and Currents Weather Stations Pressure Air Temp Water Temp Dewpoint Dewpoint Depression Visibility Wind Speed Wind Dir Waves Ship Positions

Stad Amsterdam (Netherlands)

Ship's website: http://www.stadamsterdam.com/content/home/index.xml

Last reported at 2017-Sep-25 09:29 UTC. Time now 2017-Sep-25 09:43 UTC.
Position N 51°54' E 004°29'.

Length 76 m; beam 10 m.

Type: Sailing vessel. MMSI: 246494000.

Date/timePositionNaut miles runAvg speedWind from/ knotsBaromVisibWave heightAir tempDewpointWater temp
2017-Sep-25 09:29N 51°54' E 004°29'0 0.0
2017-Sep-25 08:59N 51°54' E 004°29'0 0.0
2017-Sep-25 08:29N 51°54' E 004°29'0 0.0
2017-Sep-25 07:59N 51°54' E 004°29'0 0.0
2017-Sep-25 07:29N 51°54' E 004°29'0 0.0
2017-Sep-25 06:59N 51°54' E 004°29'0 0.0
2017-Sep-25 06:29N 51°54' E 004°29'0 0.0
2017-Sep-25 05:59N 51°54' E 004°29'0 0.0
2017-Sep-25 05:30N 51°54' E 004°29'1 1.9
2017-Sep-25 05:00N 51°54' E 004°28'4 8.7
2017-Sep-25 04:30N 51°54' E 004°21'4 8.7
2017-Sep-25 04:00N 51°55' E 004°14'5 9.3
2017-Sep-25 03:30N 51°58' E 004°08'4 7.6
2017-Sep-25 03:00N 51°59' E 004°02'3 7.1
2017-Sep-25 02:30N 52°01' E 003°57'  
2017-Sep-22 01:57N 53°33' E 009°59'0 0.0
2017-Sep-22 01:29N 53°33' E 009°59'0 0.0
2017-Sep-22 01:00N 53°33' E 009°59'0 0.0
2017-Sep-22 00:30N 53°33' E 009°59'0 0.0
2017-Sep-22 00:00N 53°33' E 009°59'0 0.0
2017-Sep-21 23:30N 53°33' E 009°59'0 0.0
2017-Sep-21 22:59N 53°33' E 009°59'0 0.0
2017-Sep-21 22:29N 53°33' E 009°59'0 0.0
2017-Sep-21 22:00N 53°33' E 009°59'0 0.0
2017-Sep-21 21:30N 53°33' E 009°59'0 0.0
2017-Sep-21 21:00N 53°33' E 009°59'0 0.0
2017-Sep-21 20:30N 53°33' E 009°59'0 0.0
2017-Sep-21 20:00N 53°33' E 009°59'0 0.0
2017-Sep-21 19:30N 53°33' E 009°59'0 0.0
2017-Sep-21 19:00N 53°33' E 009°59'0 0.0
2017-Sep-21 18:30N 53°33' E 009°59'0 0.0
2017-Sep-21 17:59N 53°33' E 009°59'0 0.0
2017-Sep-21 17:29N 53°33' E 009°59'0 0.0
2017-Sep-21 17:00N 53°33' E 009°59'0 0.0
2017-Sep-21 16:30N 53°33' E 009°59'0 0.0
2017-Sep-21 16:00N 53°33' E 009°59'0 0.0
2017-Sep-21 15:30N 53°33' E 009°59'0 0.0
2017-Sep-21 14:57N 53°33' E 009°59'0 0.0
2017-Sep-21 14:30N 53°33' E 009°59'0 0.0
2017-Sep-21 13:59N 53°33' E 009°59'0 0.1
2017-Sep-21 13:30N 53°33' E 009°59'2 4.6
2017-Sep-21 13:00N 53°32' E 009°55'5 9.4
2017-Sep-21 12:30N 53°33' E 009°47'3 6.4
2017-Sep-21 12:00N 53°34' E 009°42'3 6.1
2017-Sep-21 11:30N 53°35' E 009°37'3 5.2
2017-Sep-21 11:00N 53°37' E 009°34'3 6.1
2017-Sep-21 10:30N 53°35' E 009°38'4 7.2
2017-Sep-21 10:00N 53°34' E 009°44'4 7.1
2017-Sep-21 09:30N 53°33' E 009°49'3 6.4
2017-Sep-21 09:00N 53°33' E 009°55'2 4.7
2017-Sep-21 08:30N 53°33' E 009°59'0 0.0
2017-Sep-21 08:00N 53°33' E 009°59'0 0.0
2017-Sep-21 07:30N 53°33' E 009°59'0 0.0
2017-Sep-21 07:00N 53°33' E 009°59'0 0.0
2017-Sep-21 06:30N 53°33' E 009°59'0 0.0
2017-Sep-21 06:00N 53°33' E 009°59'0 0.0
2017-Sep-21 05:30N 53°33' E 009°59'0 0.0
2017-Sep-21 05:00N 53°33' E 009°59'0 0.0
2017-Sep-21 04:30N 53°33' E 009°59'0 0.0
2017-Sep-21 04:00N 53°33' E 009°59'0 0.0
2017-Sep-21 03:30N 53°33' E 009°59'0 0.0
2017-Sep-21 03:00N 53°33' E 009°59'0 0.0
2017-Sep-21 02:30N 53°33' E 009°59'0 0.0
2017-Sep-21 02:00N 53°33' E 009°59'0 0.0
2017-Sep-21 01:30N 53°33' E 009°59'0 0.0
2017-Sep-21 01:00N 53°33' E 009°59'0 0.0
2017-Sep-21 00:30N 53°33' E 009°59'0 0.0
2017-Sep-21 00:00N 53°33' E 009°59'0 0.0
2017-Sep-20 23:30N 53°33' E 009°59'0 0.0
2017-Sep-20 23:00N 53°33' E 009°59'0 0.0
2017-Sep-20 22:30N 53°33' E 009°59'0 0.0
2017-Sep-20 22:00N 53°33' E 009°59'0 0.0
2017-Sep-20 21:30N 53°33' E 009°59'0 0.0
2017-Sep-20 21:00N 53°33' E 009°59'0 0.0
2017-Sep-20 20:27N 53°33' E 009°59'0 0.0
2017-Sep-20 20:00N 53°33' E 009°59'0 0.0
2017-Sep-20 19:30N 53°33' E 009°59'0 0.0
2017-Sep-20 19:00N 53°33' E 009°59'0 0.0
2017-Sep-20 18:30N 53°33' E 009°59'0 0.0
2017-Sep-20 18:00N 53°33' E 009°59'0 0.0
2017-Sep-20 17:30N 53°33' E 009°59'0 0.0
2017-Sep-20 17:00N 53°33' E 009°59'0 0.0
2017-Sep-20 16:30N 53°33' E 009°59'0 0.0
2017-Sep-20 16:00N 53°33' E 009°59'0 0.0
2017-Sep-20 15:30N 53°33' E 009°59'0 0.0
2017-Sep-20 15:00N 53°33' E 009°59'0 0.0
2017-Sep-20 14:00N 53°33' E 009°59'0 0.0
2017-Sep-20 13:30N 53°33' E 009°59'0 0.0
2017-Sep-20 13:00N 53°33' E 009°59'0 0.0
2017-Sep-20 12:30N 53°33' E 009°59'0 0.0
2017-Sep-20 12:00N 53°33' E 009°59'0 0.0
2017-Sep-20 11:30N 53°33' E 009°59'0 0.8
2017-Sep-20 11:00N 53°32' E 009°59'3 6.8
2017-Sep-20 10:30N 53°32' E 009°54'4 7.9
2017-Sep-20 10:00N 53°33' E 009°47'3 5.5
2017-Sep-20 09:30N 53°34' E 009°43'3 6.0
2017-Sep-20 09:00N 53°33' E 009°48'4 7.3
2017-Sep-20 08:30N 53°33' E 009°54'3 5.8
2017-Sep-20 07:59N 53°33' E 009°59'0 0.0
2017-Sep-20 07:29N 53°33' E 009°59'0 0.0
2017-Sep-20 06:59N 53°33' E 009°59'0 0.0
2017-Sep-20 06:29N 53°33' E 009°59'0 0.0
2017-Sep-20 05:59N 53°33' E 009°59'0 0.0
2017-Sep-20 05:29N 53°33' E 009°59'0 0.0
2017-Sep-20 04:59N 53°33' E 009°59'0 0.0
2017-Sep-20 04:29N 53°33' E 009°59'0 0.0
2017-Sep-20 03:59N 53°33' E 009°59'0 0.0
2017-Sep-20 03:29N 53°33' E 009°59'0 0.0
2017-Sep-20 02:56N 53°33' E 009°59'0 0.0
2017-Sep-20 02:29N 53°33' E 009°59'0 0.0
2017-Sep-20 01:59N 53°33' E 009°59'0 0.0
2017-Sep-20 01:29N 53°33' E 009°59'0 0.0
2017-Sep-20 00:59N 53°33' E 009°59'0 0.0
2017-Sep-20 00:29N 53°33' E 009°59'0 0.0
2017-Sep-19 23:59N 53°33' E 009°59'0 0.0
2017-Sep-19 23:29N 53°33' E 009°59'0 0.0
2017-Sep-19 22:59N 53°33' E 009°59'0 0.0
2017-Sep-19 22:29N 53°33' E 009°59'0 0.0
2017-Sep-19 21:59N 53°33' E 009°59'0 0.0
2017-Sep-19 21:29N 53°33' E 009°59'0 0.0
2017-Sep-19 20:59N 53°33' E 009°59'0 0.0
2017-Sep-19 20:29N 53°33' E 009°59'0 0.0
2017-Sep-19 19:59N 53°33' E 009°59'0 0.0
2017-Sep-19 19:29N 53°33' E 009°59'0 0.0
2017-Sep-19 18:59N 53°33' E 009°59'0 0.0
2017-Sep-19 18:29N 53°33' E 009°59'0 0.0
2017-Sep-19 17:59N 53°33' E 009°59'0 0.0
2017-Sep-19 17:29N 53°33' E 009°59'0 0.0
2017-Sep-19 16:59N 53°33' E 009°59'0 0.0
2017-Sep-19 16:29N 53°33' E 009°59'0 0.0
2017-Sep-19 15:59N 53°33' E 009°59'0 0.0
2017-Sep-19 15:29N 53°33' E 009°59'0 0.0
2017-Sep-19 15:00N 53°33' E 009°59'0 0.5
2017-Sep-19 14:30N 53°33' E 009°58'3 6.6
2017-Sep-19 14:00N 53°32' E 009°53'3 6.2
2017-Sep-19 13:30N 53°33' E 009°48'3 6.5
2017-Sep-19 13:00N 53°34' E 009°42'1 1.8
2017-Sep-19 12:30N 53°34' E 009°41'3 6.6
2017-Sep-19 12:00N 53°34' E 009°46'3 6.6
2017-Sep-19 11:30N 53°33' E 009°52'3 5.7
2017-Sep-19 11:00N 53°33' E 009°56'1 2.7
2017-Sep-19 10:30N 53°33' E 009°59'0 0.0
2017-Sep-19 10:00N 53°33' E 009°59'0 0.0
2017-Sep-19 09:30N 53°33' E 009°59'0 0.0
2017-Sep-19 09:00N 53°33' E 009°59'0 0.0
2017-Sep-19 08:30N 53°33' E 009°59'0 0.0
2017-Sep-19 08:00N 53°33' E 009°59'0 0.0
2017-Sep-19 07:30N 53°33' E 009°59'0 0.3
2017-Sep-19 07:00N 53°33' E 009°58'3 5.9
2017-Sep-19 06:30N 53°32' E 009°53'3 6.4
2017-Sep-19 06:00N 53°33' E 009°48'3 6.5
2017-Sep-19 05:30N 53°34' E 009°43'3 6.5
2017-Sep-19 05:00N 53°35' E 009°38'3 5.9
2017-Sep-19 04:31N 53°37' E 009°34'1 1.8
2017-Sep-19 03:58N 53°37' E 009°32'0 0.0
2017-Sep-19 03:28N 53°37' E 009°32'0 0.0
2017-Sep-19 02:59N 53°37' E 009°32'0 0.2
2017-Sep-19 02:30N 53°37' E 009°32'0 0.0
2017-Sep-19 02:01N 53°37' E 009°32'0 0.0
2017-Sep-19 01:30N 53°37' E 009°32'0 0.0
2017-Sep-19 01:00N 53°37' E 009°33'0 0.0
2017-Sep-19 00:30N 53°37' E 009°33'0 0.0
2017-Sep-19 00:00N 53°37' E 009°33'0 0.0
2017-Sep-18 23:31N 53°37' E 009°33'0 0.0
2017-Sep-18 23:00N 53°37' E 009°33'0 0.0
2017-Sep-18 22:30N 53°37' E 009°33'0 0.1
2017-Sep-18 22:00N 53°37' E 009°33'0 0.0
2017-Sep-18 21:30N 53°37' E 009°33'0 0.0
2017-Sep-18 21:00N 53°37' E 009°33'0 0.1
2017-Sep-18 20:30N 53°37' E 009°32'0 0.0
2017-Sep-18 20:00N 53°37' E 009°32'0 0.0
2017-Sep-18 19:30N 53°37' E 009°32'0 0.0
2017-Sep-18 19:00N 53°37' E 009°32'0 0.0
2017-Sep-18 18:30N 53°37' E 009°32'0 0.0
2017-Sep-18 18:00N 53°37' E 009°32'0 0.0
2017-Sep-18 17:30N 53°37' E 009°32'1 2.5
2017-Sep-18 17:00N 53°38' E 009°31'3 6.2
2017-Sep-18 16:30N 53°41' E 009°30'3 6.7
2017-Sep-18 16:00N 53°38' E 009°32'4 8.5
2017-Sep-18 15:30N 53°35' E 009°37'4 7.5
2017-Sep-18 15:00N 53°34' E 009°43'3 6.7
2017-Sep-18 14:30N 53°33' E 009°48'3 6.0
2017-Sep-18 14:00N 53°33' E 009°53'3 5.3
2017-Sep-18 13:31N 53°33' E 009°58'1 1.1
2017-Sep-18 13:00N 53°33' E 009°59'0 0.0
2017-Sep-18 12:30N 53°33' E 009°59'0 0.0
2017-Sep-18 12:00N 53°33' E 009°59'0 0.0
2017-Sep-18 11:30N 53°33' E 009°59'0 0.0
2017-Sep-18 11:00N 53°33' E 009°59'0 0.0
2017-Sep-18 10:30N 53°33' E 009°59'0 0.0
2017-Sep-18 10:00N 53°33' E 009°59'0 1.0
2017-Sep-18 09:31N 53°32' E 009°59'3 5.4
2017-Sep-18 09:01N 53°32' E 009°55'3 6.9
2017-Sep-18 08:30N 53°33' E 009°49'3 5.8
2017-Sep-18 08:01N 53°34' E 009°44'3 5.3
2017-Sep-18 07:31N 53°34' E 009°40'3 6.0
2017-Sep-18 07:00N 53°36' E 009°36'3 5.6
2017-Sep-18 06:31N 53°37' E 009°32'3 5.8
2017-Sep-18 06:00N 53°40' E 009°30'3 5.9
2017-Sep-18 05:30N 53°43' E 009°28'3 5.7
2017-Sep-18 05:01N 53°45' E 009°25'3 5.2
2017-Sep-18 04:30N 53°47' E 009°23'0 0.1
2017-Sep-18 04:00N 53°47' E 009°23'0 0.0
2017-Sep-18 03:24N 53°47' E 009°23'0 0.0
2017-Sep-18 02:57N 53°47' E 009°23'0 0.0
2017-Sep-18 02:30N 53°47' E 009°23'0 0.0
2017-Sep-18 02:00N 53°47' E 009°23'0 0.0
2017-Sep-18 01:27N 53°47' E 009°23'0 0.1
2017-Sep-18 00:57N 53°47' E 009°23'0 0.0
2017-Sep-18 00:27N 53°47' E 009°23'0 0.0
2017-Sep-18 00:00N 53°47' E 009°23'0 0.0
2017-Sep-17 23:27N 53°47' E 009°23'0 0.0
2017-Sep-17 23:00N 53°47' E 009°23'0 0.1
2017-Sep-17 22:27N 53°47' E 009°23'0 0.0
2017-Sep-17 21:57N 53°47' E 009°23'0 0.0
2017-Sep-17 21:24N 53°47' E 009°23'0 0.1
2017-Sep-17 20:57N 53°47' E 009°23'0 0.0
2017-Sep-17 20:27N 53°47' E 009°23'0 0.0
2017-Sep-17 19:57N 53°47' E 009°23'0 0.0
2017-Sep-17 19:30N 53°47' E 009°23'0 0.1
2017-Sep-17 19:00N 53°47' E 009°23'0 0.0
2017-Sep-17 18:30N 53°47' E 009°23'0 0.0
2017-Sep-17 17:54N 53°47' E 009°23'0 0.0
2017-Sep-17 17:30N 53°47' E 009°23'0 0.1
2017-Sep-17 17:00N 53°47' E 009°23'2 4.8
2017-Sep-17 16:30N 53°50' E 009°22'3 5.7
2017-Sep-17 16:00N 53°47' E 009°24'4 7.1
2017-Sep-17 15:30N 53°44' E 009°27'3 6.1
2017-Sep-17 15:00N 53°41' E 009°30'3 6.6
2017-Sep-17 14:30N 53°38' E 009°32'4 7.0
2017-Sep-17 14:00N 53°36' E 009°36'3 6.2
2017-Sep-17 13:30N 53°34' E 009°40'3 6.8
2017-Sep-17 13:00N 53°34' E 009°46'3 5.8
2017-Sep-17 12:30N 53°33' E 009°51'3 5.4
2017-Sep-17 12:00N 53°33' E 009°55'2 4.2
2017-Sep-17 11:30N 53°33' E 009°59'0 0.0
2017-Sep-17 11:00N 53°33' E 009°59'0 0.0
2017-Sep-17 10:30N 53°33' E 009°59'0 0.0
2017-Sep-17 10:00N 53°33' E 009°59'0 0.0
2017-Sep-17 09:30N 53°33' E 009°59'0 0.0
2017-Sep-17 09:00N 53°33' E 009°59'0 0.0
2017-Sep-17 08:30N 53°33' E 009°59'0 0.0
2017-Sep-17 08:00N 53°33' E 009°59'0 0.0
2017-Sep-17 07:24N 53°33' E 009°59'0 0.0
2017-Sep-17 07:00N 53°33' E 009°59'0 0.0
2017-Sep-17 06:30N 53°33' E 009°59'0 0.0
2017-Sep-17 06:00N 53°33' E 009°59'0 0.0
2017-Sep-17 05:30N 53°33' E 009°59'0 0.0
2017-Sep-17 05:00N 53°33' E 009°59'0 0.0
2017-Sep-17 04:30N 53°33' E 009°59'0 0.0
2017-Sep-17 04:00N 53°33' E 009°59'0 0.0
2017-Sep-17 03:30N 53°33' E 009°59'0 0.0
2017-Sep-17 03:00N 53°33' E 009°59'0 0.0
2017-Sep-17 02:30N 53°33' E 009°59'0 0.0
2017-Sep-17 02:00N 53°33' E 009°59'0 0.0
2017-Sep-17 01:30N 53°33' E 009°59'0 0.0
2017-Sep-17 01:00N 53°33' E 009°59'0 0.0
2017-Sep-17 00:30N 53°33' E 009°59'0 0.0
2017-Sep-17 00:00N 53°33' E 009°59'0 0.0
2017-Sep-16 23:30N 53°33' E 009°59'0 0.0
2017-Sep-16 23:00N 53°33' E 009°59'0 0.0
2017-Sep-16 22:30N 53°33' E 009°59'0 0.0
2017-Sep-16 22:00N 53°33' E 009°59'0 0.0
2017-Sep-16 21:30N 53°33' E 009°59'0 0.0
2017-Sep-16 21:00N 53°33' E 009°59'0 0.0
2017-Sep-16 20:30N 53°33' E 009°59'0 0.0
2017-Sep-16 20:00N 53°33' E 009°59'0 0.0
2017-Sep-16 19:30N 53°33' E 009°59'0 0.0
2017-Sep-16 19:00N 53°33' E 009°59'0 0.0
2017-Sep-16 18:30N 53°33' E 009°59'0 0.0
2017-Sep-16 18:00N 53°33' E 009°59'0 0.0
2017-Sep-16 17:30N 53°33' E 009°59'0 0.0
2017-Sep-16 17:00N 53°33' E 009°59'0 0.0
2017-Sep-16 16:30N 53°33' E 009°59'0 0.0
2017-Sep-16 16:00N 53°33' E 009°59'0 0.0
2017-Sep-16 15:30N 53°33' E 009°59'0 0.0
2017-Sep-16 15:00N 53°33' E 009°59'0 0.0
2017-Sep-16 14:30N 53°33' E 009°59'0 0.0
2017-Sep-16 14:00N 53°33' E 009°59'0 0.0
2017-Sep-16 13:30N 53°33' E 009°59'0 0.0
2017-Sep-16 13:00N 53°33' E 009°59'0 0.0
2017-Sep-16 12:30N 53°33' E 009°59'0 0.0
2017-Sep-16 12:00N 53°33' E 009°59'0 0.0
2017-Sep-16 11:30N 53°33' E 009°59'0 0.0
2017-Sep-16 10:54N 53°33' E 009°59'0 0.0
2017-Sep-16 10:30N 53°33' E 009°59'0 0.0
2017-Sep-16 10:00N 53°33' E 009°59'0 0.0
2017-Sep-16 09:30N 53°33' E 009°59'0 0.0
2017-Sep-16 09:00N 53°33' E 009°59'0 0.0
2017-Sep-16 08:30N 53°33' E 009°59'0 0.0
2017-Sep-16 08:00N 53°33' E 009°59'0 0.0
2017-Sep-16 07:30N 53°33' E 009°59'0 0.0
2017-Sep-16 07:00N 53°33' E 009°59'0 0.0
2017-Sep-16 06:30N 53°33' E 009°59'0 0.0
2017-Sep-16 06:00N 53°33' E 009°59'0 0.0
2017-Sep-16 05:30N 53°33' E 009°59'0 0.0
2017-Sep-16 05:00N 53°33' E 009°59'0 0.0
2017-Sep-16 04:30N 53°33' E 009°59'0 0.0
2017-Sep-16 04:00N 53°33' E 009°59'0 0.0
2017-Sep-16 03:30N 53°33' E 009°59'0 0.0
2017-Sep-16 03:00N 53°33' E 009°59'0 0.0
2017-Sep-16 02:30N 53°33' E 009°59'0 0.0
2017-Sep-16 02:00N 53°33' E 009°59'0 0.0
2017-Sep-16 01:30N 53°33' E 009°59'0 0.0
2017-Sep-16 01:00N 53°33' E 009°59'0 0.0
2017-Sep-16 00:30N 53°33' E 009°59'0 0.0
2017-Sep-16 00:00N 53°33' E 009°59'0 0.0
2017-Sep-15 23:30N 53°33' E 009°59'0 0.0
2017-Sep-15 23:00N 53°33' E 009°59'0 0.0
2017-Sep-15 22:30N 53°33' E 009°59'0 0.0
2017-Sep-15 22:00N 53°33' E 009°59'0 0.0
2017-Sep-15 21:30N 53°33' E 009°59'0 0.0
2017-Sep-15 21:00N 53°33' E 009°59'0 0.0
2017-Sep-15 20:30N 53°33' E 009°59'0 0.0
2017-Sep-15 20:00N 53°33' E 009°59'0 0.0
2017-Sep-15 19:30N 53°33' E 009°59'0 0.0
2017-Sep-15 19:00N 53°33' E 009°59'0 0.0
2017-Sep-15 18:30N 53°33' E 009°59'0 0.0
2017-Sep-15 18:00N 53°33' E 009°59'0 0.0
2017-Sep-15 17:30N 53°33' E 009°59'0 0.0
2017-Sep-15 17:00N 53°33' E 009°59'0 0.0
2017-Sep-15 16:30N 53°33' E 009°59'0 0.0
2017-Sep-15 16:00N 53°33' E 009°59'0 0.0
2017-Sep-15 15:30N 53°33' E 009°59'0 0.0
2017-Sep-15 15:00N 53°33' E 009°59'0 0.0
2017-Sep-15 14:30N 53°33' E 009°59'0 0.0
2017-Sep-15 14:00N 53°33' E 009°59'0 0.0
2017-Sep-15 13:30N 53°33' E 009°59'0 0.0
2017-Sep-15 13:00N 53°33' E 009°59'0 0.0
2017-Sep-15 12:30N 53°33' E 009°59'0 0.0
2017-Sep-15 12:00N 53°33' E 009°59'0 0.0
2017-Sep-15 11:27N 53°33' E 009°59'0 0.0
2017-Sep-15 11:00N 53°33' E 009°59'0 0.0
2017-Sep-15 10:27N 53°33' E 009°59'0 0.2
2017-Sep-15 10:01N 53°32' E 009°59'2 4.3
2017-Sep-15 09:31N 53°32' E 009°55'  
Track history (hours):
 
Tides and Currents Weather Stations Pressure Air Temp Water Temp Dewpoint Dewpoint Depression Visibility Wind Speed Wind Dir Waves Ship Positions

Stad Amsterdam (Netherlands)

Ship's website: http://www.stadamsterdam.com/content/home/index.xml

Last reported at 2017-Sep-25 09:29 UTC. Time now 2017-Sep-25 09:43 UTC.
Position N 51°54' E 004°29'.

Length 76 m; beam 10 m.

Type: Sailing vessel. MMSI: 246494000.

Date/timePositionNaut miles runAvg speedWind from/ knotsBaromVisibWave heightAir tempDewpointWater temp
2017-Sep-25 09:29N 51°54' E 004°29'0 0.0
2017-Sep-25 08:59N 51°54' E 004°29'0 0.0
2017-Sep-25 08:29N 51°54' E 004°29'0 0.0
2017-Sep-25 07:59N 51°54' E 004°29'0 0.0
2017-Sep-25 07:29N 51°54' E 004°29'0 0.0
2017-Sep-25 06:59N 51°54' E 004°29'0 0.0
2017-Sep-25 06:29N 51°54' E 004°29'0 0.0
2017-Sep-25 05:59N 51°54' E 004°29'0 0.0
2017-Sep-25 05:30N 51°54' E 004°29'1 1.9
2017-Sep-25 05:00N 51°54' E 004°28'4 8.7
2017-Sep-25 04:30N 51°54' E 004°21'4 8.7
2017-Sep-25 04:00N 51°55' E 004°14'5 9.3
2017-Sep-25 03:30N 51°58' E 004°08'4 7.6
2017-Sep-25 03:00N 51°59' E 004°02'3 7.1
2017-Sep-25 02:30N 52°01' E 003°57'  
2017-Sep-22 01:57N 53°33' E 009°59'0 0.0
2017-Sep-22 01:29N 53°33' E 009°59'0 0.0
2017-Sep-22 01:00N 53°33' E 009°59'0 0.0
2017-Sep-22 00:30N 53°33' E 009°59'0 0.0
2017-Sep-22 00:00N 53°33' E 009°59'0 0.0
2017-Sep-21 23:30N 53°33' E 009°59'0 0.0
2017-Sep-21 22:59N 53°33' E 009°59'0 0.0
2017-Sep-21 22:29N 53°33' E 009°59'0 0.0
2017-Sep-21 22:00N 53°33' E 009°59'0 0.0
2017-Sep-21 21:30N 53°33' E 009°59'0 0.0
2017-Sep-21 21:00N 53°33' E 009°59'0 0.0
2017-Sep-21 20:30N 53°33' E 009°59'0 0.0
2017-Sep-21 20:00N 53°33' E 009°59'0 0.0
2017-Sep-21 19:30N 53°33' E 009°59'0 0.0
2017-Sep-21 19:00N 53°33' E 009°59'0 0.0
2017-Sep-21 18:30N 53°33' E 009°59'0 0.0
2017-Sep-21 17:59N 53°33' E 009°59'0 0.0
2017-Sep-21 17:29N 53°33' E 009°59'0 0.0
2017-Sep-21 17:00N 53°33' E 009°59'0 0.0
2017-Sep-21 16:30N 53°33' E 009°59'0 0.0
2017-Sep-21 16:00N 53°33' E 009°59'0 0.0
2017-Sep-21 15:30N 53°33' E 009°59'0 0.0
2017-Sep-21 14:57N 53°33' E 009°59'0 0.0
2017-Sep-21 14:30N 53°33' E 009°59'0 0.0
2017-Sep-21 13:59N 53°33' E 009°59'0 0.1
2017-Sep-21 13:30N 53°33' E 009°59'2 4.6
2017-Sep-21 13:00N 53°32' E 009°55'5 9.4
2017-Sep-21 12:30N 53°33' E 009°47'3 6.4
2017-Sep-21 12:00N 53°34' E 009°42'3 6.1
2017-Sep-21 11:30N 53°35' E 009°37'3 5.2
2017-Sep-21 11:00N 53°37' E 009°34'3 6.1
2017-Sep-21 10:30N 53°35' E 009°38'4 7.2
2017-Sep-21 10:00N 53°34' E 009°44'4 7.1
2017-Sep-21 09:30N 53°33' E 009°49'3 6.4
2017-Sep-21 09:00N 53°33' E 009°55'2 4.7
2017-Sep-21 08:30N 53°33' E 009°59'0 0.0
2017-Sep-21 08:00N 53°33' E 009°59'0 0.0
2017-Sep-21 07:30N 53°33' E 009°59'0 0.0
2017-Sep-21 07:00N 53°33' E 009°59'0 0.0
2017-Sep-21 06:30N 53°33' E 009°59'0 0.0
2017-Sep-21 06:00N 53°33' E 009°59'0 0.0
2017-Sep-21 05:30N 53°33' E 009°59'0 0.0
2017-Sep-21 05:00N 53°33' E 009°59'0 0.0
2017-Sep-21 04:30N 53°33' E 009°59'0 0.0
2017-Sep-21 04:00N 53°33' E 009°59'0 0.0
2017-Sep-21 03:30N 53°33' E 009°59'0 0.0
2017-Sep-21 03:00N 53°33' E 009°59'0 0.0
2017-Sep-21 02:30N 53°33' E 009°59'0 0.0
2017-Sep-21 02:00N 53°33' E 009°59'0 0.0
2017-Sep-21 01:30N 53°33' E 009°59'0 0.0
2017-Sep-21 01:00N 53°33' E 009°59'0 0.0
2017-Sep-21 00:30N 53°33' E 009°59'0 0.0
2017-Sep-21 00:00N 53°33' E 009°59'0 0.0
2017-Sep-20 23:30N 53°33' E 009°59'0 0.0
2017-Sep-20 23:00N 53°33' E 009°59'0 0.0
2017-Sep-20 22:30N 53°33' E 009°59'0 0.0
2017-Sep-20 22:00N 53°33' E 009°59'0 0.0
2017-Sep-20 21:30N 53°33' E 009°59'0 0.0
2017-Sep-20 21:00N 53°33' E 009°59'0 0.0
2017-Sep-20 20:27N 53°33' E 009°59'0 0.0
2017-Sep-20 20:00N 53°33' E 009°59'0 0.0
2017-Sep-20 19:30N 53°33' E 009°59'0 0.0
2017-Sep-20 19:00N 53°33' E 009°59'0 0.0
2017-Sep-20 18:30N 53°33' E 009°59'0 0.0
2017-Sep-20 18:00N 53°33' E 009°59'0 0.0
2017-Sep-20 17:30N 53°33' E 009°59'0 0.0
2017-Sep-20 17:00N 53°33' E 009°59'0 0.0
2017-Sep-20 16:30N 53°33' E 009°59'0 0.0
2017-Sep-20 16:00N 53°33' E 009°59'0 0.0
2017-Sep-20 15:30N 53°33' E 009°59'0 0.0
2017-Sep-20 15:00N 53°33' E 009°59'0 0.0
2017-Sep-20 14:00N 53°33' E 009°59'0 0.0
2017-Sep-20 13:30N 53°33' E 009°59'0 0.0
2017-Sep-20 13:00N 53°33' E 009°59'0 0.0
2017-Sep-20 12:30N 53°33' E 009°59'0 0.0
2017-Sep-20 12:00N 53°33' E 009°59'0 0.0
2017-Sep-20 11:30N 53°33' E 009°59'0 0.8
2017-Sep-20 11:00N 53°32' E 009°59'3 6.8
2017-Sep-20 10:30N 53°32' E 009°54'4 7.9
2017-Sep-20 10:00N 53°33' E 009°47'3 5.5
2017-Sep-20 09:30N 53°34' E 009°43'3 6.0
2017-Sep-20 09:00N 53°33' E 009°48'4 7.3
2017-Sep-20 08:30N 53°33' E 009°54'3 5.8
2017-Sep-20 07:59N 53°33' E 009°59'0 0.0
2017-Sep-20 07:29N 53°33' E 009°59'0 0.0
2017-Sep-20 06:59N 53°33' E 009°59'0 0.0
2017-Sep-20 06:29N 53°33' E 009°59'0 0.0
2017-Sep-20 05:59N 53°33' E 009°59'0 0.0
2017-Sep-20 05:29N 53°33' E 009°59'0 0.0
2017-Sep-20 04:59N 53°33' E 009°59'0 0.0
2017-Sep-20 04:29N 53°33' E 009°59'0 0.0
2017-Sep-20 03:59N 53°33' E 009°59'0 0.0
2017-Sep-20 03:29N 53°33' E 009°59'0 0.0
2017-Sep-20 02:56N 53°33' E 009°59'0 0.0
2017-Sep-20 02:29N 53°33' E 009°59'0 0.0
2017-Sep-20 01:59N 53°33' E 009°59'0 0.0
2017-Sep-20 01:29N 53°33' E 009°59'0 0.0
2017-Sep-20 00:59N 53°33' E 009°59'0 0.0
2017-Sep-20 00:29N 53°33' E 009°59'0 0.0
2017-Sep-19 23:59N 53°33' E 009°59'0 0.0
2017-Sep-19 23:29N 53°33' E 009°59'0 0.0
2017-Sep-19 22:59N 53°33' E 009°59'0 0.0
2017-Sep-19 22:29N 53°33' E 009°59'0 0.0
2017-Sep-19 21:59N 53°33' E 009°59'0 0.0
2017-Sep-19 21:29N 53°33' E 009°59'0 0.0
2017-Sep-19 20:59N 53°33' E 009°59'0 0.0
2017-Sep-19 20:29N 53°33' E 009°59'0 0.0
2017-Sep-19 19:59N 53°33' E 009°59'0 0.0
2017-Sep-19 19:29N 53°33' E 009°59'0 0.0
2017-Sep-19 18:59N 53°33' E 009°59'0 0.0
2017-Sep-19 18:29N 53°33' E 009°59'0 0.0
2017-Sep-19 17:59N 53°33' E 009°59'0 0.0
2017-Sep-19 17:29N 53°33' E 009°59'0 0.0
2017-Sep-19 16:59N 53°33' E 009°59'0 0.0
2017-Sep-19 16:29N 53°33' E 009°59'0 0.0
2017-Sep-19 15:59N 53°33' E 009°59'0 0.0
2017-Sep-19 15:29N 53°33' E 009°59'0 0.0
2017-Sep-19 15:00N 53°33' E 009°59'0 0.5
2017-Sep-19 14:30N 53°33' E 009°58'3 6.6
2017-Sep-19 14:00N 53°32' E 009°53'3 6.2
2017-Sep-19 13:30N 53°33' E 009°48'3 6.5
2017-Sep-19 13:00N 53°34' E 009°42'1 1.8
2017-Sep-19 12:30N 53°34' E 009°41'3 6.6
2017-Sep-19 12:00N 53°34' E 009°46'3 6.6
2017-Sep-19 11:30N 53°33' E 009°52'3 5.7
2017-Sep-19 11:00N 53°33' E 009°56'1 2.7
2017-Sep-19 10:30N 53°33' E 009°59'0 0.0
2017-Sep-19 10:00N 53°33' E 009°59'0 0.0
2017-Sep-19 09:30N 53°33' E 009°59'0 0.0
2017-Sep-19 09:00N 53°33' E 009°59'0 0.0
2017-Sep-19 08:30N 53°33' E 009°59'0 0.0
2017-Sep-19 08:00N 53°33' E 009°59'0 0.0
2017-Sep-19 07:30N 53°33' E 009°59'0 0.3
2017-Sep-19 07:00N 53°33' E 009°58'3 5.9
2017-Sep-19 06:30N 53°32' E 009°53'3 6.4
2017-Sep-19 06:00N 53°33' E 009°48'3 6.5
2017-Sep-19 05:30N 53°34' E 009°43'3 6.5
2017-Sep-19 05:00N 53°35' E 009°38'3 5.9
2017-Sep-19 04:31N 53°37' E 009°34'1 1.8
2017-Sep-19 03:58N 53°37' E 009°32'0 0.0
2017-Sep-19 03:28N 53°37' E 009°32'0 0.0
2017-Sep-19 02:59N 53°37' E 009°32'0 0.2
2017-Sep-19 02:30N 53°37' E 009°32'0 0.0
2017-Sep-19 02:01N 53°37' E 009°32'0 0.0
2017-Sep-19 01:30N 53°37' E 009°32'0 0.0
2017-Sep-19 01:00N 53°37' E 009°33'0 0.0
2017-Sep-19 00:30N 53°37' E 009°33'0 0.0
2017-Sep-19 00:00N 53°37' E 009°33'0 0.0
2017-Sep-18 23:31N 53°37' E 009°33'0 0.0
2017-Sep-18 23:00N 53°37' E 009°33'0 0.0
2017-Sep-18 22:30N 53°37' E 009°33'0 0.1
2017-Sep-18 22:00N 53°37' E 009°33'0 0.0
2017-Sep-18 21:30N 53°37' E 009°33'0 0.0
2017-Sep-18 21:00N 53°37' E 009°33'0 0.1
2017-Sep-18 20:30N 53°37' E 009°32'0 0.0
2017-Sep-18 20:00N 53°37' E 009°32'0 0.0
2017-Sep-18 19:30N 53°37' E 009°32'0 0.0
2017-Sep-18 19:00N 53°37' E 009°32'0 0.0
2017-Sep-18 18:30N 53°37' E 009°32'0 0.0
2017-Sep-18 18:00N 53°37' E 009°32'0 0.0
2017-Sep-18 17:30N 53°37' E 009°32'1 2.5
2017-Sep-18 17:00N 53°38' E 009°31'3 6.2
2017-Sep-18 16:30N 53°41' E 009°30'3 6.7
2017-Sep-18 16:00N 53°38' E 009°32'4 8.5
2017-Sep-18 15:30N 53°35' E 009°37'4 7.5
2017-Sep-18 15:00N 53°34' E 009°43'3 6.7
2017-Sep-18 14:30N 53°33' E 009°48'3 6.0
2017-Sep-18 14:00N 53°33' E 009°53'3 5.3
2017-Sep-18 13:31N 53°33' E 009°58'1 1.1
2017-Sep-18 13:00N 53°33' E 009°59'0 0.0
2017-Sep-18 12:30N 53°33' E 009°59'0 0.0
2017-Sep-18 12:00N 53°33' E 009°59'0 0.0
2017-Sep-18 11:30N 53°33' E 009°59'0 0.0
2017-Sep-18 11:00N 53°33' E 009°59'0 0.0
2017-Sep-18 10:30N 53°33' E 009°59'0 0.0
2017-Sep-18 10:00N 53°33' E 009°59'0 1.0
2017-Sep-18 09:31N 53°32' E 009°59'3 5.4
2017-Sep-18 09:01N 53°32' E 009°55'3 6.9
2017-Sep-18 08:30N 53°33' E 009°49'3 5.8
2017-Sep-18 08:01N 53°34' E 009°44'3 5.3
2017-Sep-18 07:31N 53°34' E 009°40'3 6.0
2017-Sep-18 07:00N 53°36' E 009°36'3 5.6
2017-Sep-18 06:31N 53°37' E 009°32'3 5.8
2017-Sep-18 06:00N 53°40' E 009°30'3 5.9
2017-Sep-18 05:30N 53°43' E 009°28'3 5.7
2017-Sep-18 05:01N 53°45' E 009°25'3 5.2
2017-Sep-18 04:30N 53°47' E 009°23'0 0.1
2017-Sep-18 04:00N 53°47' E 009°23'0 0.0
2017-Sep-18 03:24N 53°47' E 009°23'0 0.0
2017-Sep-18 02:57N 53°47' E 009°23'0 0.0
2017-Sep-18 02:30N 53°47' E 009°23'0 0.0
2017-Sep-18 02:00N 53°47' E 009°23'0 0.0
2017-Sep-18 01:27N 53°47' E 009°23'0 0.1
2017-Sep-18 00:57N 53°47' E 009°23'0 0.0
2017-Sep-18 00:27N 53°47' E 009°23'0 0.0
2017-Sep-18 00:00N 53°47' E 009°23'0 0.0
2017-Sep-17 23:27N 53°47' E 009°23'0 0.0
2017-Sep-17 23:00N 53°47' E 009°23'0 0.1
2017-Sep-17 22:27N 53°47' E 009°23'0 0.0
2017-Sep-17 21:57N 53°47' E 009°23'0 0.0
2017-Sep-17 21:24N 53°47' E 009°23'0 0.1
2017-Sep-17 20:57N 53°47' E 009°23'0 0.0
2017-Sep-17 20:27N 53°47' E 009°23'0 0.0
2017-Sep-17 19:57N 53°47' E 009°23'0 0.0
2017-Sep-17 19:30N 53°47' E 009°23'0 0.1
2017-Sep-17 19:00N 53°47' E 009°23'0 0.0
2017-Sep-17 18:30N 53°47' E 009°23'0 0.0
2017-Sep-17 17:54N 53°47' E 009°23'0 0.0
2017-Sep-17 17:30N 53°47' E 009°23'0 0.1
2017-Sep-17 17:00N 53°47' E 009°23'2 4.8
2017-Sep-17 16:30N 53°50' E 009°22'3 5.7
2017-Sep-17 16:00N 53°47' E 009°24'4 7.1
2017-Sep-17 15:30N 53°44' E 009°27'3 6.1
2017-Sep-17 15:00N 53°41' E 009°30'3 6.6
2017-Sep-17 14:30N 53°38' E 009°32'4 7.0
2017-Sep-17 14:00N 53°36' E 009°36'3 6.2
2017-Sep-17 13:30N 53°34' E 009°40'3 6.8
2017-Sep-17 13:00N 53°34' E 009°46'3 5.8
2017-Sep-17 12:30N 53°33' E 009°51'3 5.4
2017-Sep-17 12:00N 53°33' E 009°55'2 4.2
2017-Sep-17 11:30N 53°33' E 009°59'0 0.0
2017-Sep-17 11:00N 53°33' E 009°59'0 0.0
2017-Sep-17 10:30N 53°33' E 009°59'0 0.0
2017-Sep-17 10:00N 53°33' E 009°59'0 0.0
2017-Sep-17 09:30N 53°33' E 009°59'0 0.0
2017-Sep-17 09:00N 53°33' E 009°59'0 0.0
2017-Sep-17 08:30N 53°33' E 009°59'0 0.0
2017-Sep-17 08:00N 53°33' E 009°59'0 0.0
2017-Sep-17 07:24N 53°33' E 009°59'0 0.0
2017-Sep-17 07:00N 53°33' E 009°59'0 0.0
2017-Sep-17 06:30N 53°33' E 009°59'0 0.0
2017-Sep-17 06:00N 53°33' E 009°59'0 0.0
2017-Sep-17 05:30N 53°33' E 009°59'0 0.0
2017-Sep-17 05:00N 53°33' E 009°59'0 0.0
2017-Sep-17 04:30N 53°33' E 009°59'0 0.0
2017-Sep-17 04:00N 53°33' E 009°59'0 0.0
2017-Sep-17 03:30N 53°33' E 009°59'0 0.0
2017-Sep-17 03:00N 53°33' E 009°59'0 0.0
2017-Sep-17 02:30N 53°33' E 009°59'0 0.0
2017-Sep-17 02:00N 53°33' E 009°59'0 0.0
2017-Sep-17 01:30N 53°33' E 009°59'0 0.0
2017-Sep-17 01:00N 53°33' E 009°59'0 0.0
2017-Sep-17 00:30N 53°33' E 009°59'0 0.0
2017-Sep-17 00:00N 53°33' E 009°59'0 0.0
2017-Sep-16 23:30N 53°33' E 009°59'0 0.0
2017-Sep-16 23:00N 53°33' E 009°59'0 0.0
2017-Sep-16 22:30N 53°33' E 009°59'0 0.0
2017-Sep-16 22:00N 53°33' E 009°59'0 0.0
2017-Sep-16 21:30N 53°33' E 009°59'0 0.0
2017-Sep-16 21:00N 53°33' E 009°59'0 0.0
2017-Sep-16 20:30N 53°33' E 009°59'0 0.0
2017-Sep-16 20:00N 53°33' E 009°59'0 0.0
2017-Sep-16 19:30N 53°33' E 009°59'0 0.0
2017-Sep-16 19:00N 53°33' E 009°59'0 0.0
2017-Sep-16 18:30N 53°33' E 009°59'0 0.0
2017-Sep-16 18:00N 53°33' E 009°59'0 0.0
2017-Sep-16 17:30N 53°33' E 009°59'0 0.0
2017-Sep-16 17:00N 53°33' E 009°59'0 0.0
2017-Sep-16 16:30N 53°33' E 009°59'0 0.0
2017-Sep-16 16:00N 53°33' E 009°59'0 0.0
2017-Sep-16 15:30N 53°33' E 009°59'0 0.0
2017-Sep-16 15:00N 53°33' E 009°59'0 0.0
2017-Sep-16 14:30N 53°33' E 009°59'0 0.0
2017-Sep-16 14:00N 53°33' E 009°59'0 0.0
2017-Sep-16 13:30N 53°33' E 009°59'0 0.0
2017-Sep-16 13:00N 53°33' E 009°59'0 0.0
2017-Sep-16 12:30N 53°33' E 009°59'0 0.0
2017-Sep-16 12:00N 53°33' E 009°59'0 0.0
2017-Sep-16 11:30N 53°33' E 009°59'0 0.0
2017-Sep-16 10:54N 53°33' E 009°59'0 0.0
2017-Sep-16 10:30N 53°33' E 009°59'0 0.0
2017-Sep-16 10:00N 53°33' E 009°59'0 0.0
2017-Sep-16 09:30N 53°33' E 009°59'0 0.0
2017-Sep-16 09:00N 53°33' E 009°59'0 0.0
2017-Sep-16 08:30N 53°33' E 009°59'0 0.0
2017-Sep-16 08:00N 53°33' E 009°59'0 0.0
2017-Sep-16 07:30N 53°33' E 009°59'0 0.0
2017-Sep-16 07:00N 53°33' E 009°59'0 0.0
2017-Sep-16 06:30N 53°33' E 009°59'0 0.0
2017-Sep-16 06:00N 53°33' E 009°59'0 0.0
2017-Sep-16 05:30N 53°33' E 009°59'0 0.0
2017-Sep-16 05:00N 53°33' E 009°59'0 0.0
2017-Sep-16 04:30N 53°33' E 009°59'0 0.0
2017-Sep-16 04:00N 53°33' E 009°59'0 0.0
2017-Sep-16 03:30N 53°33' E 009°59'0 0.0
2017-Sep-16 03:00N 53°33' E 009°59'0 0.0
2017-Sep-16 02:30N 53°33' E 009°59'0 0.0
2017-Sep-16 02:00N 53°33' E 009°59'0 0.0
2017-Sep-16 01:30N 53°33' E 009°59'0 0.0
2017-Sep-16 01:00N 53°33' E 009°59'0 0.0
2017-Sep-16 00:30N 53°33' E 009°59'0 0.0
2017-Sep-16 00:00N 53°33' E 009°59'0 0.0
2017-Sep-15 23:30N 53°33' E 009°59'0 0.0
2017-Sep-15 23:00N 53°33' E 009°59'0 0.0
2017-Sep-15 22:30N 53°33' E 009°59'0 0.0
2017-Sep-15 22:00N 53°33' E 009°59'0 0.0
2017-Sep-15 21:30N 53°33' E 009°59'0 0.0
2017-Sep-15 21:00N 53°33' E 009°59'0 0.0
2017-Sep-15 20:30N 53°33' E 009°59'0 0.0
2017-Sep-15 20:00N 53°33' E 009°59'0 0.0
2017-Sep-15 19:30N 53°33' E 009°59'0 0.0
2017-Sep-15 19:00N 53°33' E 009°59'0 0.0
2017-Sep-15 18:30N 53°33' E 009°59'0 0.0
2017-Sep-15 18:00N 53°33' E 009°59'0 0.0
2017-Sep-15 17:30N 53°33' E 009°59'0 0.0
2017-Sep-15 17:00N 53°33' E 009°59'0 0.0
2017-Sep-15 16:30N 53°33' E 009°59'0 0.0
2017-Sep-15 16:00N 53°33' E 009°59'0 0.0
2017-Sep-15 15:30N 53°33' E 009°59'0 0.0
2017-Sep-15 15:00N 53°33' E 009°59'0 0.0
2017-Sep-15 14:30N 53°33' E 009°59'0 0.0
2017-Sep-15 14:00N 53°33' E 009°59'0 0.0
2017-Sep-15 13:30N 53°33' E 009°59'0 0.0
2017-Sep-15 13:00N 53°33' E 009°59'0 0.0
2017-Sep-15 12:30N 53°33' E 009°59'0 0.0
2017-Sep-15 12:00N 53°33' E 009°59'0 0.0
2017-Sep-15 11:27N 53°33' E 009°59'0 0.0
2017-Sep-15 11:00N 53°33' E 009°59'0 0.0
2017-Sep-15 10:27N 53°33' E 009°59'0 0.2
2017-Sep-15 10:01N 53°32' E 009°59'2 4.3
2017-Sep-15 09:31N 53°32' E 009°55'  

Dump ship's entire track history